Time;durP1;ratioP1;P1;durP2;ratioP2;P2;SDS_P1;SDS_P2;PMS_P1;PMS_P2;Temp;Humidity;BMP_temperature;BMP_pressure;BME280_temperature;BME280_humidity;BME280_pressure;Samples;Min_cycle;Max_cycle;Signal;HPM_P1;HPM_P2
2021/08/20 00:00:00;;;;;;;0.10;0.10;;;17.80;99.90;;;;;;5034159;28;20369;-76
2021/08/20 00:02:27;;;;;;;0.10;0.10;;;17.70;99.90;;;;;;5034323;28;20029;-76
2021/08/20 00:04:53;;;;;;;0.10;0.10;;;17.70;99.90;;;;;;5052093;28;20106;-76
2021/08/20 00:07:18;;;;;;;0.10;0.10;;;17.80;99.90;;;;;;5034025;28;20443;-76
2021/08/20 00:09:44;;;;;;;0.10;0.10;;;17.90;99.90;;;;;;5033566;28;20021;-76
2021/08/20 00:12:10;;;;;;;0.10;0.10;;;18.00;99.90;;;;;;5052072;28;20021;-76
2021/08/20 00:14:36;;;;;;;0.28;0.28;;;18.00;99.90;;;;;;5052047;28;20032;-76
2021/08/20 00:17:02;;;;;;;0.10;0.10;;;17.90;99.90;;;;;;5051692;28;20021;-76
2021/08/20 00:19:28;;;;;;;0.10;0.10;;;17.80;99.90;;;;;;5051774;28;20029;-76
2021/08/20 00:21:54;;;;;;;0.10;0.10;;;17.70;99.90;;;;;;5034025;28;20071;-76
2021/08/20 00:24:20;;;;;;;0.10;0.10;;;17.70;99.90;;;;;;5033929;28;20481;-76
2021/08/20 00:26:46;;;;;;;0.10;0.10;;;17.60;99.90;;;;;;5051974;28;20093;-76
2021/08/20 00:29:12;;;;;;;0.10;0.10;;;17.70;99.90;;;;;;5033839;28;20029;-76
2021/08/20 00:31:38;;;;;;;0.90;0.90;;;17.60;99.90;;;;;;5034126;28;20032;-75
2021/08/20 00:34:04;;;;;;;0.10;0.10;;;17.70;99.90;;;;;;5017606;28;20029;-76
2021/08/20 00:36:29;;;;;;;0.10;0.10;;;17.80;99.90;;;;;;5033980;28;20047;-76
2021/08/20 00:38:55;;;;;;;0.00;0.00;;;17.80;99.90;;;;;;5017241;28;20021;-76
2021/08/20 00:41:21;;;;;;;0.10;0.10;;;17.70;99.90;;;;;;5033856;28;20107;-75
2021/08/20 00:43:47;;;;;;;0.10;0.10;;;17.80;99.90;;;;;;5051625;28;20014;-76
2021/08/20 00:46:13;;;;;;;0.10;0.10;;;17.80;99.90;;;;;;5033534;28;20115;-76
2021/08/20 00:48:39;;;;;;;2.17;1.65;;;17.60;99.90;;;;;;5051430;28;20151;-76
2021/08/20 00:51:26;;;;;;;0.10;0.10;;;17.70;99.90;;;;;;5033786;28;20022;-76
2021/08/20 00:53:54;;;;;;;0.10;0.10;;;17.70;99.90;;;;;;5052079;28;20108;-76
2021/08/20 00:56:20;;;;;;;0.10;0.10;;;17.60;99.90;;;;;;5051653;28;20029;-76
2021/08/20 00:58:50;;;;;;;0.10;0.10;;;17.60;99.90;;;;;;5051444;28;20357;-76
2021/08/20 01:01:16;;;;;;;0.10;0.10;;;17.70;99.90;;;;;;5051635;28;20400;-76
2021/08/20 01:03:43;;;;;;;0.00;0.00;;;17.70;99.90;;;;;;5051478;28;20079;-76
2021/08/20 01:06:09;;;;;;;0.10;0.10;;;17.70;99.90;;;;;;5051572;28;20096;-76
2021/08/20 01:08:37;;;;;;;0.10;0.10;;;17.60;99.90;;;;;;5033423;28;20056;-76
2021/08/20 01:11:06;;;;;;;0.10;0.10;;;17.50;99.90;;;;;;5051480;28;20068;-76
2021/08/20 01:13:33;;;;;;;0.10;0.10;;;17.50;99.90;;;;;;5033401;28;20412;-76
2021/08/20 01:16:03;;;;;;;0.10;0.10;;;17.50;99.90;;;;;;5033433;28;20025;-76
2021/08/20 01:18:31;;;;;;;0.10;0.10;;;17.70;99.90;;;;;;5051083;28;20115;-76
2021/08/20 01:20:59;;;;;;;4.03;1.88;;;17.70;99.90;;;;;;5033669;28;20071;-76
2021/08/20 01:23:26;;;;;;;0.10;0.10;;;17.70;99.90;;;;;;5054368;28;20473;-76
2021/08/20 01:25:53;;;;;;;0.10;0.10;;;17.50;99.90;;;;;;5055001;28;20023;-76
2021/08/20 01:28:21;;;;;;;0.10;0.10;;;17.40;99.90;;;;;;5054883;28;20027;-76
2021/08/20 01:30:48;;;;;;;0.10;0.10;;;17.40;99.90;;;;;;5037195;28;20029;-76
2021/08/20 01:33:14;;;;;;;0.10;0.10;;;17.40;99.90;;;;;;5055232;28;20043;-76
2021/08/20 01:35:41;;;;;;;0.10;0.10;;;17.30;99.90;;;;;;5037215;28;20467;-76
2021/08/20 01:38:06;;;;;;;0.38;0.38;;;17.40;99.90;;;;;;5020080;28;20033;-76
2021/08/20 01:40:32;;;;;;;0.10;0.10;;;17.50;99.90;;;;;;5037042;28;20613;-76
2021/08/20 01:42:58;;;;;;;0.10;0.10;;;17.50;99.90;;;;;;5036584;28;20028;-76
2021/08/20 01:45:24;;;;;;;0.00;0.00;;;17.50;99.90;;;;;;5036590;28;20044;-76
2021/08/20 01:47:49;;;;;;;0.00;0.00;;;17.40;99.90;;;;;;5036541;28;20512;-76
2021/08/20 01:50:15;;;;;;;0.10;0.10;;;17.40;99.90;;;;;;5036727;28;20508;-76
2021/08/20 01:52:41;;;;;;;0.10;0.10;;;17.30;99.90;;;;;;5036733;28;20029;-76
2021/08/20 01:55:09;;;;;;;0.10;0.10;;;17.00;99.90;;;;;;5054403;28;20033;-76
2021/08/20 01:57:36;;;;;;;0.20;0.20;;;17.00;99.90;;;;;;5036504;28;20029;-76
2021/08/20 02:00:04;;;;;;;0.10;0.10;;;17.10;99.90;;;;;;5036407;28;20025;-76
2021/08/20 02:02:30;;;;;;;0.20;0.20;;;17.10;99.90;;;;;;5036643;28;20118;-75
2021/08/20 02:04:56;;;;;;;0.10;0.10;;;17.00;99.90;;;;;;5036222;28;20052;-76
2021/08/20 02:07:22;;;;;;;0.40;0.40;;;17.00;99.90;;;;;;5036325;28;20267;-76
2021/08/20 02:09:47;;;;;;;0.10;0.10;;;17.10;99.90;;;;;;5036114;28;20120;-76
2021/08/20 02:12:14;;;;;;;0.10;0.10;;;17.10;99.90;;;;;;5054301;28;20384;-76
2021/08/20 02:14:40;;;;;;;0.43;0.43;;;17.10;99.90;;;;;;5036262;28;20082;-75
2021/08/20 02:17:06;;;;;;;0.13;0.13;;;17.10;99.90;;;;;;5019678;28;20484;-76
2021/08/20 02:19:33;;;;;;;0.20;0.20;;;17.00;99.90;;;;;;5035889;28;20384;-76
2021/08/20 02:21:59;;;;;;;0.10;0.10;;;17.00;99.90;;;;;;5036168;28;20037;-76
2021/08/20 02:24:25;;;;;;;0.50;0.50;;;17.10;99.90;;;;;;5053875;28;20079;-76
2021/08/20 02:26:51;;;;;;;0.10;0.10;;;17.00;99.90;;;;;;5036062;28;20029;-76
2021/08/20 02:29:16;;;;;;;0.20;0.20;;;16.80;99.90;;;;;;5054015;28;20388;-76
2021/08/20 02:31:42;;;;;;;0.17;0.17;;;16.60;99.90;;;;;;5054024;28;20025;-76
2021/08/20 02:34:08;;;;;;;0.10;0.10;;;16.50;99.90;;;;;;5035543;28;20033;-75
2021/08/20 02:36:33;;;;;;;0.10;0.10;;;16.40;99.90;;;;;;5035880;28;20472;-76
2021/08/20 02:38:59;;;;;;;0.10;0.10;;;16.50;99.90;;;;;;5053618;28;20017;-76
2021/08/20 02:41:25;;;;;;;0.10;0.10;;;16.50;99.90;;;;;;5053623;28;20118;-76
2021/08/20 02:43:52;;;;;;;0.10;0.10;;;16.40;99.90;;;;;;5035573;28;20029;-76
2021/08/20 02:46:18;;;;;;;0.20;0.20;;;16.20;99.90;;;;;;5115154;22;20056;-76
2021/08/20 02:48:43;;;;;;;0.38;0.38;;;16.30;99.90;;;;;;5053251;28;20096;-76
2021/08/20 02:51:10;;;;;;;0.40;0.30;;;16.20;99.90;;;;;;5035564;28;20032;-76
2021/08/20 02:53:36;;;;;;;0.10;0.10;;;15.90;99.90;;;;;;5035487;28;20025;-76
2021/08/20 02:56:02;;;;;;;0.10;0.10;;;15.90;99.90;;;;;;5053294;28;20047;-76
2021/08/20 02:58:28;;;;;;;0.10;0.10;;;16.00;99.90;;;;;;5035274;28;20021;-76
2021/08/20 03:00:54;;;;;;;0.35;0.35;;;16.10;99.90;;;;;;5018901;28;20365;-76
2021/08/20 03:03:20;;;;;;;0.10;0.10;;;16.00;99.90;;;;;;5053273;28;20096;-76
2021/08/20 03:05:46;;;;;;;0.22;0.22;;;16.00;99.90;;;;;;5053052;28;20451;-76
2021/08/20 03:08:11;;;;;;;0.10;0.10;;;16.00;99.90;;;;;;5052951;28;20502;-76
2021/08/20 03:10:37;;;;;;;0.10;0.10;;;16.10;99.90;;;;;;5035144;28;20040;-76
2021/08/20 03:13:04;;;;;;;0.10;0.10;;;16.20;99.90;;;;;;5035361;28;20472;-76
2021/08/20 03:15:30;;;;;;;0.10;0.10;;;16.20;99.90;;;;;;5052929;28;20108;-76
2021/08/20 03:17:55;;;;;;;1.13;1.00;;;16.30;99.90;;;;;;5034949;28;20099;-76
2021/08/20 03:20:21;;;;;;;0.40;0.40;;;16.40;99.90;;;;;;5052720;28;20029;-76
2021/08/20 03:22:47;;;;;;;0.10;0.10;;;16.40;99.90;;;;;;5018584;28;20017;-76
2021/08/20 03:25:13;;;;;;;0.10;0.10;;;16.40;99.90;;;;;;5034881;28;20396;-76
2021/08/20 03:27:39;;;;;;;0.10;0.10;;;16.50;99.90;;;;;;5052707;28;20051;-76
2021/08/20 03:30:05;;;;;;;0.35;0.35;;;16.30;99.90;;;;;;5052636;28;20037;-76
2021/08/20 03:32:31;;;;;;;7.55;2.83;;;16.30;99.90;;;;;;5034802;28;20506;-76
2021/08/20 03:34:57;;;;;;;0.10;0.10;;;16.40;99.90;;;;;;5034728;28;20029;-76
2021/08/20 03:37:22;;;;;;;0.10;0.10;;;16.40;99.90;;;;;;5034617;28;20120;-76
2021/08/20 03:39:48;;;;;;;0.20;0.20;;;16.60;99.90;;;;;;5052355;28;20029;-76
2021/08/20 03:42:14;;;;;;;0.10;0.10;;;16.70;99.90;;;;;;5034567;28;20029;-76
2021/08/20 03:44:40;;;;;;;0.10;0.10;;;16.60;99.90;;;;;;5033594;28;20021;-76
2021/08/20 03:47:05;;;;;;;0.10;0.10;;;16.60;99.90;;;;;;5034653;28;20045;-76
2021/08/20 03:49:31;;;;;;;0.17;0.17;;;16.60;99.90;;;;;;5017578;28;20033;-76
2021/08/20 03:51:57;;;;;;;1.98;0.85;;;16.60;99.90;;;;;;5052820;28;20440;-76
2021/08/20 03:54:22;;;;;;;0.10;0.10;;;16.50;99.90;;;;;;5018443;28;20052;-76
2021/08/20 03:56:48;;;;;;;0.10;0.10;;;16.40;99.90;;;;;;5052770;28;20032;-76
2021/08/20 03:59:14;;;;;;;0.10;0.10;;;16.60;99.90;;;;;;5052393;28;20032;-76
2021/08/20 04:01:40;;;;;;;0.20;0.20;;;16.70;99.90;;;;;;5052711;28;20025;-76
2021/08/20 04:04:06;;;;;;;0.10;0.10;;;16.70;99.90;;;;;;5052364;28;20084;-76
2021/08/20 04:06:31;;;;;;;0.10;0.10;;;16.70;99.90;;;;;;5052070;28;20438;-76
2021/08/20 04:08:57;;;;;;;0.10;0.10;;;16.70;99.90;;;;;;5034533;28;20020;-76
2021/08/20 04:11:23;;;;;;;0.10;0.10;;;16.80;99.90;;;;;;5034453;28;20151;-76
2021/08/20 04:13:49;;;;;;;0.20;0.20;;;16.80;99.90;;;;;;5052470;28;20148;-76
2021/08/20 04:16:15;;;;;;;0.10;0.10;;;16.70;99.90;;;;;;5052398;28;20024;-76
2021/08/20 04:18:41;;;;;;;0.10;0.10;;;16.70;99.90;;;;;;5052168;28;20144;-76
2021/08/20 04:21:07;;;;;;;0.10;0.10;;;16.70;99.90;;;;;;5018115;28;20395;-76
2021/08/20 04:23:34;;;;;;;0.10;0.10;;;16.70;99.90;;;;;;5052319;28;20094;-76
2021/08/20 04:26:01;;;;;;;0.10;0.10;;;16.70;99.90;;;;;;5052421;28;20104;-76
2021/08/20 04:28:27;;;;;;;0.20;0.20;;;16.80;99.90;;;;;;5033967;28;20484;-76
2021/08/20 04:30:52;;;;;;;0.10;0.10;;;16.80;99.90;;;;;;5051655;28;20029;-76
2021/08/20 04:33:18;;;;;;;0.10;0.10;;;16.80;99.90;;;;;;5051912;28;20083;-76
2021/08/20 04:35:44;;;;;;;0.10;0.10;;;16.80;99.90;;;;;;5051718;28;20025;-76
2021/08/20 04:38:10;;;;;;;0.85;0.77;;;16.80;99.90;;;;;;5033727;28;20055;-76
2021/08/20 04:40:36;;;;;;;0.30;0.30;;;16.60;99.90;;;;;;5051673;28;20029;-76
2021/08/20 04:43:02;;;;;;;0.38;0.32;;;16.40;99.90;;;;;;5051822;28;20045;-76
2021/08/20 04:45:27;;;;;;;0.17;0.17;;;16.50;99.90;;;;;;5033496;28;20124;-76
2021/08/20 04:47:53;;;;;;;0.20;0.20;;;16.50;99.90;;;;;;5017441;28;20123;-76
2021/08/20 04:50:19;;;;;;;0.15;0.15;;;16.40;99.90;;;;;;5033836;28;20079;-76
2021/08/20 04:52:45;;;;;;;0.10;0.10;;;16.40;99.90;;;;;;5051809;28;20116;-76
2021/08/20 04:55:11;;;;;;;0.17;0.17;;;16.60;99.90;;;;;;5051563;28;20048;-76
2021/08/20 04:57:37;;;;;;;0.30;0.30;;;16.70;99.90;;;;;;5054924;28;20028;-76
2021/08/20 05:00:06;;;;;;;4.30;3.05;;;16.80;99.90;;;;;;5037467;28;20024;-76
2021/08/20 05:02:33;;;;;;;0.30;0.30;;;16.70;99.90;;;;;;5037579;28;20266;-76
2021/08/20 05:04:59;;;;;;;0.10;0.10;;;16.70;99.90;;;;;;5021238;28;20030;-76
2021/08/20 05:07:25;;;;;;;0.30;0.17;;;16.70;99.90;;;;;;5039020;28;20416;-76
2021/08/20 05:09:51;;;;;;;0.10;0.10;;;16.80;99.90;;;;;;5051974;28;20139;-76
2021/08/20 05:12:17;;;;;;;0.60;0.52;;;16.80;99.90;;;;;;5054417;28;20453;-76
2021/08/20 05:14:42;;;;;;;1.52;0.80;;;16.90;99.90;;;;;;5041408;28;20101;-76
2021/08/20 05:17:08;;;;;;;1.67;1.05;;;16.70;99.90;;;;;;5045354;28;20029;-76
2021/08/20 05:19:34;;;;;;;0.10;0.10;;;16.60;99.90;;;;;;5053665;28;20028;-76
2021/08/20 05:22:00;;;;;;;0.00;0.00;;;16.70;99.90;;;;;;5053940;28;20037;-76
2021/08/20 05:24:25;;;;;;;0.10;0.10;;;16.80;99.90;;;;;;5053795;28;20488;-76
2021/08/20 05:26:51;;;;;;;0.00;0.00;;;16.90;99.90;;;;;;5026026;28;20063;-76
2021/08/20 05:29:17;;;;;;;1.73;1.15;;;17.00;99.90;;;;;;5053215;28;20024;-76
2021/08/20 05:31:42;;;;;;;0.03;0.03;;;16.90;99.90;;;;;;5053926;28;20030;-76
2021/08/20 05:34:08;;;;;;;0.10;0.10;;;16.90;99.90;;;;;;5046004;28;20040;-76
2021/08/20 05:36:34;;;;;;;1.00;0.90;;;17.00;99.90;;;;;;5022643;28;20057;-76
2021/08/20 05:39:00;;;;;;;0.98;0.30;;;16.90;99.90;;;;;;5054138;28;20028;-76
2021/08/20 05:41:25;;;;;;;0.10;0.10;;;16.70;99.90;;;;;;5054411;28;20078;-76
2021/08/20 05:43:51;;;;;;;0.10;0.10;;;16.60;99.90;;;;;;5020341;28;20086;-75
2021/08/20 05:46:17;;;;;;;0.08;0.08;;;16.60;99.90;;;;;;5046786;28;20037;-76
2021/08/20 05:48:43;;;;;;;0.10;0.10;;;16.70;99.90;;;;;;5045901;28;20025;-76
2021/08/20 05:51:08;;;;;;;0.05;0.05;;;16.90;99.90;;;;;;5022812;28;20273;-76
2021/08/20 05:53:34;;;;;;;0.10;0.10;;;17.00;99.90;;;;;;5046081;28;20522;-76
2021/08/20 05:56:00;;;;;;;0.10;0.10;;;17.10;99.90;;;;;;5053600;28;20031;-76
2021/08/20 05:58:25;;;;;;;0.10;0.10;;;17.20;99.90;;;;;;5046327;28;20390;-76
2021/08/20 06:00:51;;;;;;;1.55;0.95;;;17.20;99.90;;;;;;5046747;28;20036;-76
2021/08/20 06:03:23;;;;;;;0.10;0.10;;;17.10;99.90;;;;;;5051436;28;20476;-76
2021/08/20 06:05:50;;;;;;;0.45;0.35;;;16.90;99.90;;;;;;5037275;28;20049;-76
2021/08/20 06:08:15;;;;;;;0.20;0.20;;;16.90;99.90;;;;;;5052001;28;20029;-76
2021/08/20 06:10:44;;;;;;;0.32;0.32;;;17.00;99.90;;;;;;5037467;28;20052;-75
2021/08/20 06:13:11;;;;;;;0.30;0.30;;;17.00;99.90;;;;;;5023204;28;20033;-75
2021/08/20 06:15:37;;;;;;;0.32;0.32;;;17.10;99.90;;;;;;5052736;28;20546;-75
2021/08/20 06:18:04;;;;;;;0.30;0.30;;;17.20;99.90;;;;;;5047440;28;20096;-75
2021/08/20 06:20:29;;;;;;;0.20;0.20;;;17.20;99.90;;;;;;5049867;28;20028;-75
2021/08/20 06:22:55;;;;;;;0.20;0.20;;;17.10;99.90;;;;;;5053164;28;20025;-75
2021/08/20 06:25:21;;;;;;;0.32;0.32;;;17.10;99.90;;;;;;5052954;28;20087;-75
2021/08/20 06:27:47;;;;;;;1.13;0.90;;;17.10;99.90;;;;;;5034675;28;20027;-75
2021/08/20 06:30:13;;;;;;;0.00;0.00;;;17.20;99.90;;;;;;5052257;28;20052;-76
2021/08/20 06:32:38;;;;;;;0.10;0.10;;;17.20;99.90;;;;;;5037679;28;20388;-75
2021/08/20 06:35:04;;;;;;;1.08;1.08;;;17.30;99.90;;;;;;5048600;28;20070;-75
2021/08/20 06:37:30;;;;;;;0.15;0.15;;;17.40;99.90;;;;;;5052405;28;20025;-75
2021/08/20 06:39:56;;;;;;;0.20;0.20;;;17.60;99.90;;;;;;5023734;28;20017;-75
2021/08/20 06:42:22;;;;;;;0.00;0.00;;;17.80;99.90;;;;;;5052270;28;20029;-75
2021/08/20 06:44:48;;;;;;;0.20;0.20;;;17.90;99.90;;;;;;5048304;28;20028;-75
2021/08/20 06:47:14;;;;;;;0.80;0.75;;;17.80;99.90;;;;;;5052345;28;20021;-75
2021/08/20 06:49:40;;;;;;;1.08;0.52;;;17.70;99.90;;;;;;5040964;28;20070;-75
2021/08/20 06:52:08;;;;;;;0.43;0.43;;;17.50;99.90;;;;;;5052321;28;20395;-75
2021/08/20 06:54:34;;;;;;;0.10;0.10;;;17.70;99.90;;;;;;5040198;28;20037;-75
2021/08/20 06:57:00;;;;;;;1.00;0.50;;;17.80;99.90;;;;;;5052291;28;20040;-75
2021/08/20 06:59:25;;;;;;;0.52;0.25;;;17.90;99.90;;;;;;5039051;28;20480;-75
2021/08/20 07:01:51;;;;;;;0.00;0.00;;;17.70;99.90;;;;;;5051996;28;20025;-75
2021/08/20 07:04:17;;;;;;;2.05;1.95;;;17.80;99.90;;;;;;5051210;28;20071;-75
2021/08/20 07:06:43;;;;;;;0.00;0.00;;;17.90;99.90;;;;;;5052096;28;20497;-75
2021/08/20 07:09:08;;;;;;;0.10;0.10;;;17.90;99.90;;;;;;5051159;28;20017;-75
2021/08/20 07:11:34;;;;;;;0.10;0.10;;;18.20;99.90;;;;;;5051825;28;20385;-75
2021/08/20 07:14:00;;;;;;;0.00;0.00;;;18.40;99.90;;;;;;5051776;28;20039;-75
2021/08/20 07:16:27;;;;;;;0.10;0.10;;;18.60;99.90;;;;;;5038878;28;20017;-75
2021/08/20 07:18:52;;;;;;;1.45;0.75;;;18.80;99.90;;;;;;5035709;28;20063;-75
2021/08/20 07:21:18;;;;;;;0.80;0.80;;;18.90;99.90;;;;;;5039375;28;20482;-75
2021/08/20 07:23:44;;;;;;;0.10;0.10;;;18.90;99.90;;;;;;5044590;28;20048;-75
2021/08/20 07:26:11;;;;;;;0.10;0.10;;;19.00;99.90;;;;;;5038408;28;20461;-76
2021/08/20 07:28:37;;;;;;;0.10;0.10;;;19.10;99.90;;;;;;5029200;28;20038;-75
2021/08/20 07:31:04;;;;;;;0.08;0.08;;;19.20;99.90;;;;;;5023385;28;20082;-75
2021/08/20 07:33:30;;;;;;;0.10;0.10;;;19.30;99.90;;;;;;5038549;28;20174;-75
2021/08/20 07:35:57;;;;;;;0.10;0.10;;;19.30;99.90;;;;;;5022620;28;20477;-75
2021/08/20 07:38:22;;;;;;;0.20;0.20;;;19.40;99.90;;;;;;5043521;28;20068;-75
2021/08/20 07:40:48;;;;;;;0.10;0.10;;;19.50;99.90;;;;;;5032801;28;20458;-75
2021/08/20 07:43:14;;;;;;;0.10;0.10;;;19.60;99.90;;;;;;5051670;28;20021;-75
2021/08/20 07:45:40;;;;;;;0.25;0.25;;;19.80;99.90;;;;;;5040204;28;20155;-75
2021/08/20 07:48:07;;;;;;;0.10;0.10;;;19.90;99.90;;;;;;5040646;28;20021;-74
2021/08/20 07:50:33;;;;;;;0.10;0.10;;;19.90;99.90;;;;;;5045285;28;20049;-74
2021/08/20 07:52:59;;;;;;;0.10;0.10;;;20.00;99.90;;;;;;5051192;28;20033;-75
2021/08/20 07:55:24;;;;;;;0.38;0.38;;;19.90;99.90;;;;;;5042790;28;20373;-74
2021/08/20 07:57:52;;;;;;;0.10;0.10;;;19.90;99.90;;;;;;5050137;28;20035;-74
2021/08/20 08:00:20;;;;;;;0.10;0.10;;;19.90;99.90;;;;;;5024918;28;20028;-75
2021/08/20 08:02:46;;;;;;;4.32;0.93;;;19.80;99.90;;;;;;5023947;28;20028;-74
2021/08/20 08:05:12;;;;;;;0.00;0.00;;;19.60;99.90;;;;;;5038872;28;20431;-74
2021/08/20 08:07:37;;;;;;;0.10;0.10;;;19.60;99.90;;;;;;5033442;28;20438;-74
2021/08/20 08:10:04;;;;;;;0.10;0.10;;;19.70;99.90;;;;;;5040305;28;20032;-74
2021/08/20 08:12:30;;;;;;;0.03;0.03;;;19.70;99.90;;;;;;5051352;28;20362;-75
2021/08/20 08:14:56;;;;;;;0.10;0.10;;;19.90;99.90;;;;;;5050667;28;20044;-75
2021/08/20 08:17:22;;;;;;;0.10;0.10;;;19.80;99.90;;;;;;5050943;28;20025;-74
2021/08/20 08:19:48;;;;;;;0.73;0.73;;;19.80;99.90;;;;;;5051068;28;20025;-74
2021/08/20 08:22:14;;;;;;;0.10;0.10;;;19.90;99.90;;;;;;5042086;28;20017;-73
2021/08/20 08:24:39;;;;;;;0.10;0.10;;;20.10;99.90;;;;;;5046372;28;20025;-73
2021/08/20 08:27:05;;;;;;;0.10;0.10;;;20.30;99.90;;;;;;5050798;28;20082;-73
2021/08/20 08:29:31;;;;;;;0.30;0.30;;;20.30;99.90;;;;;;5037408;28;20044;-73
2021/08/20 08:31:57;;;;;;;0.30;0.30;;;20.60;99.90;;;;;;5046260;28;20021;-73
2021/08/20 08:34:22;;;;;;;0.05;0.05;;;20.60;99.90;;;;;;5042883;28;20030;-73
2021/08/20 08:36:48;;;;;;;0.20;0.20;;;20.90;99.90;;;;;;5023565;28;20033;-73
2021/08/20 08:39:14;;;;;;;0.38;0.38;;;21.30;99.90;;;;;;5035151;28;20096;-73
2021/08/20 08:41:40;;;;;;;7.72;1.08;;;21.70;99.90;;;;;;5050752;28;20358;-73
2021/08/20 08:44:06;;;;;;;0.55;0.30;;;21.80;99.90;;;;;;5025098;28;20025;-73
2021/08/20 08:46:36;;;;;;;0.10;0.10;;;22.10;99.90;;;;;;5050521;28;20095;-73
2021/08/20 08:49:04;;;;;;;0.10;0.10;;;22.40;99.90;;;;;;5051388;28;20526;-74
2021/08/20 08:51:30;;;;;;;0.30;0.30;;;22.80;98.20;;;;;;5050750;28;20036;-74
2021/08/20 08:53:56;;;;;;;0.15;0.15;;;23.20;96.20;;;;;;5047203;28;20033;-74
2021/08/20 08:56:22;;;;;;;0.10;0.10;;;22.80;93.80;;;;;;5051321;28;20021;-74
2021/08/20 08:58:48;;;;;;;0.20;0.20;;;22.80;94.00;;;;;;5051226;28;20032;-74
2021/08/20 09:01:30;;;;;;;0.10;0.10;;;22.50;93.20;;;;;;5050890;28;20071;-74
2021/08/20 09:04:21;;;;;;;0.03;0.03;;;22.20;94.00;;;;;;5037660;28;20060;-74
2021/08/20 09:06:56;;;;;;;0.75;0.63;;;22.20;94.70;;;;;;5037592;28;20035;-74
2021/08/20 09:09:24;;;;;;;0.00;0.00;;;22.20;94.30;;;;;;5040566;28;20041;-74
2021/08/20 09:12:01;;;;;;;0.00;0.00;;;22.20;93.90;;;;;;5051029;28;20017;-73
2021/08/20 09:14:37;;;;;;;0.00;0.00;;;22.30;94.50;;;;;;5013173;28;20021;-73
2021/08/20 09:17:04;;;;;;;0.08;0.08;;;22.30;94.40;;;;;;5050399;28;20373;-74
2021/08/20 09:19:30;;;;;;;0.00;0.00;;;22.40;92.40;;;;;;5050512;28;20517;-73
2021/08/20 09:21:58;;;;;;;0.03;0.03;;;22.50;92.90;;;;;;5050500;28;20032;-73
2021/08/20 09:24:37;;;;;;;0.10;0.10;;;22.50;93.40;;;;;;5029228;28;20111;-73
2021/08/20 09:27:18;;;;;;;0.43;0.43;;;22.30;94.60;;;;;;5040921;28;20377;-73
2021/08/20 09:30:06;;;;;;;0.00;0.00;;;22.00;94.60;;;;;;5028948;28;20025;-73
2021/08/20 09:32:32;;;;;;;0.10;0.10;;;22.00;94.40;;;;;;5046089;28;20542;-73
2021/08/20 09:34:58;;;;;;;0.00;0.00;;;22.00;93.70;;;;;;5050423;28;20078;-74
2021/08/20 09:37:29;;;;;;;0.00;0.00;;;22.10;93.80;;;;;;5050183;28;20112;-73
2021/08/20 09:40:13;;;;;;;0.05;0.05;;;22.30;93.80;;;;;;5043321;28;20021;-73
2021/08/20 09:42:39;;;;;;;0.00;0.00;;;22.40;93.80;;;;;;5032609;28;20040;-74
2021/08/20 09:45:22;;;;;;;0.00;0.00;;;22.50;93.30;;;;;;5053731;28;20025;-73
2021/08/20 09:47:52;;;;;;;0.43;0.43;;;22.80;93.30;;;;;;5035599;28;20033;-73
2021/08/20 09:50:20;;;;;;;0.00;0.00;;;23.00;91.80;;;;;;5052192;28;20036;-73
2021/08/20 09:52:46;;;;;;;0.10;0.10;;;23.10;92.40;;;;;;5050160;28;20028;-73
2021/08/20 09:55:13;;;;;;;0.00;0.00;;;23.00;91.60;;;;;;5053652;28;20052;-73
2021/08/20 09:57:40;;;;;;;0.10;0.10;;;22.80;92.10;;;;;;5042337;28;20028;-73
2021/08/20 10:00:09;;;;;;;0.00;0.00;;;22.80;91.70;;;;;;5053768;28;20024;-73
2021/08/20 10:02:39;;;;;;;0.00;0.00;;;22.60;93.10;;;;;;5039100;28;20029;-73
2021/08/20 10:05:06;;;;;;;0.00;0.00;;;22.50;92.20;;;;;;5052787;28;20029;-74
2021/08/20 10:07:40;;;;;;;0.22;0.22;;;22.90;92.10;;;;;;5053835;28;20071;-73
2021/08/20 10:10:08;;;;;;;0.40;0.40;;;23.40;90.00;;;;;;5019800;28;20115;-73
2021/08/20 10:12:39;;;;;;;0.90;0.90;;;23.20;90.10;;;;;;5038165;28;20035;-74
2021/08/20 10:15:06;;;;;;;0.10;0.10;;;23.50;89.70;;;;;;5052937;28;20085;-74
2021/08/20 10:17:33;;;;;;;0.30;0.30;;;23.90;86.40;;;;;;5051695;28;20047;-74
2021/08/20 10:19:59;;;;;;;0.15;0.15;;;24.10;83.40;;;;;;5019576;28;20515;-74
2021/08/20 10:22:25;;;;;;;0.65;0.43;;;24.30;82.80;;;;;;5053471;28;20017;-74
2021/08/20 10:24:51;;;;;;;0.10;0.10;;;25.00;79.20;;;;;;5035965;28;20136;-74
2021/08/20 10:27:18;;;;;;;0.00;0.00;;;25.00;74.60;;;;;;5035493;28;20056;-74
2021/08/20 10:29:47;;;;;;;0.00;0.00;;;24.90;73.10;;;;;;5035723;28;20033;-74
2021/08/20 10:32:15;;;;;;;0.10;0.10;;;24.60;72.80;;;;;;5052304;28;20055;-74
2021/08/20 10:34:42;;;;;;;0.00;0.00;;;24.00;74.40;;;;;;5035734;28;20029;-74
2021/08/20 10:37:14;;;;;;;0.00;0.00;;;23.70;78.90;;;;;;5035446;28;20029;-74
2021/08/20 10:39:47;;;;;;;;;;;24.50;75.60;;;;;;5035948;28;20028;-74
2021/08/20 10:42:19;;;;;;;0.80;0.65;;;25.20;69.40;;;;;;5053753;28;20375;-74
2021/08/20 10:44:46;;;;;;;0.70;0.65;;;25.70;67.30;;;;;;5049759;28;20018;-74
2021/08/20 10:47:27;;;;;;;0.00;0.00;;;26.40;65.50;;;;;;5019278;28;20546;-74
2021/08/20 10:50:36;;;;;;;0.00;0.00;;;26.60;63.30;;;;;;5053321;28;20032;-74
2021/08/20 10:53:21;;;;;;;0.47;0.20;;;27.00;63.20;;;;;;4952560;28;20035;-74
2021/08/20 10:55:47;;;;;;;0.00;0.00;;;27.10;60.80;;;;;;5033554;28;20112;-74
2021/08/20 10:58:13;;;;;;;0.88;0.85;;;27.40;60.80;;;;;;5052950;28;20075;-74
2021/08/20 11:00:40;;;;;;;0.10;0.10;;;27.30;57.60;;;;;;5035345;28;20086;-74
2021/08/20 11:03:10;;;;;;;0.05;0.05;;;27.40;58.40;;;;;;5034961;28;20021;-75
2021/08/20 11:05:48;;;;;;;1.25;0.57;;;27.70;58.30;;;;;;5052868;28;20075;-74
2021/08/20 11:08:29;;;;;;;0.20;0.20;;;28.10;56.90;;;;;;5052178;28;20024;-75
2021/08/20 11:10:57;;;;;;;0.25;0.25;;;27.80;56.90;;;;;;5032926;28;20084;-74
2021/08/20 11:13:23;;;;;;;0.00;0.00;;;27.50;57.10;;;;;;5020441;28;20052;-74
2021/08/20 11:15:51;;;;;;;0.20;0.00;;;26.90;58.00;;;;;;5052638;28;20516;-74
2021/08/20 11:18:42;;;;;;;0.03;0.03;;;26.60;59.00;;;;;;5034420;28;20033;-74
2021/08/20 11:21:07;;;;;;;3.10;1.13;;;26.40;60.90;;;;;;5052634;28;20013;-74
2021/08/20 11:23:34;;;;;;;0.00;0.00;;;26.60;60.80;;;;;;5052830;28;20067;-74
2021/08/20 11:26:01;;;;;;;0.00;0.00;;;27.20;61.50;;;;;;5034763;28;20021;-74
2021/08/20 11:28:32;;;;;;;0.45;0.45;;;27.50;61.90;;;;;;5050735;28;20032;-75
2021/08/20 11:31:05;;;;;;;0.47;0.47;;;27.90;61.00;;;;;;5052545;28;20052;-75
2021/08/20 11:33:49;;;;;;;0.30;0.30;;;27.40;61.60;;;;;;5052532;28;20033;-75
2021/08/20 11:36:18;;;;;;;2.08;1.45;;;26.90;63.80;;;;;;5051178;28;20028;-75
2021/08/20 11:38:56;;;;;;;0.03;0.03;;;26.90;64.10;;;;;;5052355;28;20028;-75
2021/08/20 11:41:42;;;;;;;0.35;0.20;;;27.10;64.20;;;;;;5034612;28;20025;-76
2021/08/20 11:44:09;;;;;;;1.02;0.50;;;27.40;64.00;;;;;;5038526;28;20028;-75
2021/08/20 11:46:41;;;;;;;0.10;0.10;;;27.40;60.40;;;;;;5050944;28;20071;-75
2021/08/20 11:49:08;;;;;;;0.00;0.00;;;27.70;60.60;;;;;;5052325;28;20029;-75
2021/08/20 11:51:35;;;;;;;0.10;0.10;;;27.20;60.70;;;;;;5034402;28;20025;-75
2021/08/20 11:54:06;;;;;;;1.08;1.08;;;26.90;61.50;;;;;;5050572;28;20052;-75
2021/08/20 11:56:33;;;;;;;0.10;0.10;;;26.10;63.20;;;;;;5052531;28;20102;-75
2021/08/20 11:59:12;;;;;;;0.00;0.00;;;25.80;65.80;;;;;;5051985;28;20040;-74
2021/08/20 12:01:40;;;;;;;0.15;0.15;;;25.60;66.50;;;;;;5018100;28;20025;-76
2021/08/20 12:04:06;;;;;;;0.25;0.25;;;25.50;65.70;;;;;;5052312;28;20530;-76
2021/08/20 12:06:33;;;;;;;0.10;0.10;;;25.60;65.70;;;;;;5051776;28;20017;-76
2021/08/20 12:09:13;;;;;;;0.22;0.22;;;25.60;65.00;;;;;;5051986;28;20025;-76
2021/08/20 12:11:42;;;;;;;0.30;0.30;;;25.80;65.50;;;;;;5052120;28;20388;-76
2021/08/20 12:14:15;;;;;;;0.65;0.65;;;25.70;64.60;;;;;;5017885;28;20108;-76
2021/08/20 12:16:41;;;;;;;0.00;0.00;;;26.00;65.80;;;;;;5050816;28;20029;-75
2021/08/20 12:19:41;;;;;;;0.20;0.20;;;26.20;63.90;;;;;;5051523;28;20074;-76
2021/08/20 12:22:09;;;;;;;4.18;1.10;;;26.10;62.80;;;;;;5105313;22;20059;-93
2021/08/20 12:25:02;;;;;;;0.00;0.00;;;26.30;62.60;;;;;;5039520;28;20021;-93
2021/08/20 12:27:54;;;;;;;0.00;0.00;;;26.30;60.60;;;;;;5055265;28;20037;-93
2021/08/20 12:30:48;;;;;;;0.63;0.63;;;26.00;58.80;;;;;;5044899;28;20041;-92
2021/08/20 12:34:17;;;;;;;1.17;0.32;;;25.80;59.60;;;;;;5071081;28;20029;-93
2021/08/20 12:37:11;;;;;;;0.00;0.00;;;25.80;59.50;;;;;;5018038;28;20045;-93
2021/08/20 12:39:43;;;;;;;0.00;0.00;;;25.80;61.10;;;;;;5036275;28;20059;-93
2021/08/20 12:42:50;;;;;;;0.00;0.00;;;26.10;59.90;;;;;;5053983;28;20021;-95
2021/08/20 12:45:27;;;;;;;0.28;0.28;;;26.30;58.90;;;;;;5021950;28;20065;-94
2021/08/20 12:48:25;;;;;;;0.00;0.00;;;26.30;59.30;;;;;;5038587;28;20124;-92
2021/08/20 12:51:30;;;;;;;0.00;0.00;;;26.20;59.10;;;;;;4999568;28;20045;-93
2021/08/20 12:54:14;;;;;;;0.30;0.25;;;26.00;59.80;;;;;;5058061;28;20040;-93